Time;durP1;ratioP1;P1;durP2;ratioP2;P2;SDS_P1;SDS_P2;PMS_P1;PMS_P2;Temp;Humidity;BMP_temperature;BMP_pressure;BME280_temperature;BME280_humidity;BME280_pressure;Samples;Min_cycle;Max_cycle;Signal;HPM_P1;HPM_P2
2021/12/11 00:00:06;;;;;;;7.53;3.45;;;17.00;56.40;;;;;;5051843;28;20179;-61
2021/12/11 00:02:33;;;;;;;3.78;2.88;;;17.00;56.40;;;;;;5051374;28;20178;-61
2021/12/11 00:05:00;;;;;;;3.97;3.25;;;17.00;56.40;;;;;;5051108;28;20171;-60
2021/12/11 00:07:27;;;;;;;5.10;3.00;;;17.00;56.40;;;;;;5051064;28;20175;-60
2021/12/11 00:10:05;;;;;;;3.53;2.45;;;16.90;56.40;;;;;;5050824;28;20213;-60
2021/12/11 00:12:36;;;;;;;4.68;3.28;;;16.90;56.40;;;;;;5051279;28;20257;-59
2021/12/11 00:15:09;;;;;;;3.85;2.92;;;16.90;56.40;;;;;;5051465;28;20179;-59
2021/12/11 00:17:35;;;;;;;3.42;3.13;;;16.90;56.40;;;;;;5050377;28;20182;-60
2021/12/11 00:20:02;;;;;;;4.43;3.30;;;16.90;56.40;;;;;;5051218;28;20178;-60
2021/12/11 00:22:29;;;;;;;3.00;2.70;;;16.90;56.30;;;;;;5051317;28;20203;-60
2021/12/11 00:24:59;;;;;;;3.30;3.00;;;16.90;56.30;;;;;;5050931;28;20179;-60
2021/12/11 00:27:27;;;;;;;5.43;3.03;;;16.80;56.30;;;;;;5050931;28;20618;-60
2021/12/11 00:29:52;;;;;;;3.65;2.80;;;16.80;56.30;;;;;;5051341;28;20222;-61
2021/12/11 00:32:23;;;;;;;2.85;2.60;;;16.80;56.30;;;;;;5050850;28;20179;-61
2021/12/11 00:34:50;;;;;;;3.65;2.80;;;16.80;56.20;;;;;;5051606;28;20190;-61
2021/12/11 00:37:17;;;;;;;3.60;3.13;;;16.80;56.30;;;;;;5051626;28;20184;-61
2021/12/11 00:39:49;;;;;;;4.55;2.90;;;16.80;56.20;;;;;;5050874;28;20179;-61
2021/12/11 00:42:15;;;;;;;3.28;2.97;;;16.70;56.30;;;;;;5051689;28;20260;-60
2021/12/11 00:44:47;;;;;;;3.22;2.60;;;16.70;56.30;;;;;;5051209;28;20213;-60
2021/12/11 00:47:14;;;;;;;3.35;2.90;;;16.70;56.30;;;;;;5050675;28;20179;-60
2021/12/11 00:50:07;;;;;;;4.25;2.80;;;16.70;56.30;;;;;;5050946;28;20302;-59
2021/12/11 00:52:37;;;;;;;2.97;2.67;;;16.60;56.20;;;;;;5047713;28;20219;-59
2021/12/11 00:55:08;;;;;;;3.25;2.95;;;16.70;56.30;;;;;;5051324;28;20536;-60
2021/12/11 00:57:33;;;;;;;3.55;2.70;;;16.70;56.20;;;;;;5051153;28;20213;-60
2021/12/11 01:00:11;;;;;;;3.53;2.30;;;16.60;56.20;;;;;;5054358;28;20221;-60
2021/12/11 01:02:36;;;;;;;6.85;3.22;;;16.60;56.20;;;;;;5054768;28;20178;-60
2021/12/11 01:05:03;;;;;;;3.35;2.70;;;16.60;56.20;;;;;;5054924;28;20175;-59
2021/12/11 01:07:32;;;;;;;3.40;2.88;;;16.60;56.20;;;;;;5054184;28;20637;-60
2021/12/11 01:10:08;;;;;;;3.38;2.60;;;16.60;56.20;;;;;;5054850;28;20242;-60
2021/12/11 01:12:44;;;;;;;2.80;2.60;;;16.60;56.30;;;;;;5055491;28;20175;-61
2021/12/11 01:15:25;;;;;;;2.88;2.60;;;16.60;56.20;;;;;;5053914;28;20652;-61
2021/12/11 01:18:34;;;;;;;3.70;2.83;;;16.60;56.20;;;;;;5054667;28;20641;-60
2021/12/11 01:21:12;;;;;;;3.90;2.80;;;16.50;56.20;;;;;;5053564;28;20187;-60
2021/12/11 01:26:08;;;;;;;4.28;2.92;;;16.50;56.10;;;;;;5054734;28;20619;-60
2021/12/11 01:28:36;;;;;;;2.67;2.47;;;16.50;56.20;;;;;;5053460;28;20258;-59
2021/12/11 01:31:04;;;;;;;2.97;2.63;;;16.50;56.20;;;;;;5054425;28;20627;-59
2021/12/11 01:33:29;;;;;;;2.75;2.55;;;16.50;56.10;;;;;;5053865;28;20653;-61
2021/12/11 01:35:55;;;;;;;3.90;2.85;;;16.50;56.10;;;;;;5053517;28;20187;-60
2021/12/11 01:38:23;;;;;;;2.75;2.50;;;16.50;56.20;;;;;;5054147;28;20530;-59
2021/12/11 01:40:52;;;;;;;3.10;2.83;;;16.40;56.10;;;;;;5054139;28;20183;-59
2021/12/11 01:43:20;;;;;;;2.50;2.30;;;16.40;56.10;;;;;;5053343;28;20171;-60
2021/12/11 01:45:47;;;;;;;3.03;2.70;;;16.40;56.10;;;;;;5053069;28;20202;-60
2021/12/11 01:48:17;;;;;;;3.33;2.55;;;16.40;56.10;;;;;;5053376;28;20199;-60
2021/12/11 01:50:45;;;;;;;3.08;2.70;;;16.40;56.10;;;;;;5053681;28;20679;-61
2021/12/11 01:53:33;;;;;;;2.67;2.47;;;16.40;56.10;;;;;;5053777;28;20235;-60
2021/12/11 01:56:01;;;;;;;2.85;2.63;;;16.30;56.00;;;;;;5053058;28;20237;-60
2021/12/11 01:58:43;;;;;;;2.83;2.60;;;16.30;56.60;;;;;;5053677;28;20203;-60
2021/12/11 02:01:12;;;;;;;2.88;2.40;;;16.30;56.10;;;;;;5054101;28;20183;-60
2021/12/11 02:03:38;;;;;;;2.95;2.35;;;16.30;56.10;;;;;;5052641;28;20258;-61
2021/12/11 02:06:04;;;;;;;3.13;2.83;;;16.30;56.00;;;;;;5053736;28;20262;-60
2021/12/11 02:08:32;;;;;;;3.72;2.70;;;16.30;56.00;;;;;;5053149;28;20171;-60
2021/12/11 02:11:01;;;;;;;3.97;2.75;;;16.30;56.00;;;;;;5051648;28;20575;-60
2021/12/11 02:13:53;;;;;;;3.30;2.75;;;16.30;56.10;;;;;;5053590;28;20217;-61
2021/12/11 02:16:20;;;;;;;2.53;2.33;;;16.30;56.00;;;;;;5052908;28;20198;-60
2021/12/11 02:18:49;;;;;;;2.50;2.30;;;16.30;56.10;;;;;;5053401;28;20179;-60
2021/12/11 02:21:17;;;;;;;2.60;2.40;;;16.20;56.10;;;;;;5053488;28;20167;-60
2021/12/11 02:23:43;;;;;;;3.65;2.80;;;16.20;56.00;;;;;;5052467;28;20188;-61
2021/12/11 02:26:14;;;;;;;2.78;2.58;;;16.20;55.90;;;;;;5053240;28;20179;-60
2021/12/11 02:28:51;;;;;;;2.95;2.65;;;16.20;56.00;;;;;;5053084;28;20519;-60
2021/12/11 02:31:27;;;;;;;2.70;2.50;;;16.20;56.00;;;;;;5052424;28;20175;-60
2021/12/11 02:34:08;;;;;;;2.05;1.92;;;16.20;56.00;;;;;;5053214;28;20202;-61
2021/12/11 02:36:37;;;;;;;2.33;2.22;;;16.20;56.00;;;;;;5052987;28;20186;-61
2021/12/11 02:39:26;;;;;;;2.45;2.25;;;16.20;56.00;;;;;;5052613;28;20278;-61
2021/12/11 02:41:57;;;;;;;3.17;2.88;;;16.20;56.10;;;;;;5053352;28;20254;-60
2021/12/11 02:44:43;;;;;;;2.30;2.10;;;16.10;55.90;;;;;;5052521;28;20225;-60
2021/12/11 02:47:16;;;;;;;2.55;2.35;;;16.10;56.00;;;;;;5053211;28;20336;-59
2021/12/11 02:49:53;;;;;;;3.95;2.70;;;16.10;56.00;;;;;;5052477;28;20315;-60
2021/12/11 02:52:26;;;;;;;2.42;2.22;;;16.10;56.00;;;;;;5052180;28;20159;-59
2021/12/11 02:55:01;;;;;;;3.22;2.72;;;16.10;55.90;;;;;;5052963;28;20194;-60
2021/12/11 02:57:33;;;;;;;2.85;2.58;;;16.10;56.00;;;;;;5052617;28;20257;-61
2021/12/11 03:00:12;;;;;;;2.55;2.35;;;16.10;55.90;;;;;;5052086;28;20179;-61
2021/12/11 03:02:44;;;;;;;2.35;2.15;;;16.00;55.90;;;;;;5052280;28;20700;-60
2021/12/11 03:05:12;;;;;;;2.55;2.35;;;16.10;56.00;;;;;;5052921;28;20191;-60
2021/12/11 03:07:43;;;;;;;2.88;2.58;;;16.00;55.90;;;;;;5051729;28;20531;-59
2021/12/11 03:10:11;;;;;;;2.75;2.55;;;16.00;55.90;;;;;;5052452;28;20221;-59
2021/12/11 03:12:37;;;;;;;2.30;2.10;;;16.00;55.90;;;;;;5051538;28;20254;-60
2021/12/11 03:15:04;;;;;;;2.78;2.58;;;16.00;56.00;;;;;;5052300;28;20177;-59
2021/12/11 03:17:30;;;;;;;2.90;2.60;;;16.00;55.90;;;;;;5052284;28;20186;-60
2021/12/11 03:19:55;;;;;;;2.67;2.25;;;16.00;56.00;;;;;;5051837;28;20175;-59
2021/12/11 03:22:27;;;;;;;2.25;2.13;;;16.00;56.00;;;;;;5051675;28;20543;-59
2021/12/11 03:24:53;;;;;;;2.65;2.45;;;16.00;56.00;;;;;;5052389;28;20186;-60
2021/12/11 03:27:18;;;;;;;2.50;2.30;;;16.00;56.00;;;;;;5051478;28;20179;-60
2021/12/11 03:29:44;;;;;;;3.17;2.75;;;15.90;55.90;;;;;;5051908;28;20233;-60
2021/12/11 03:32:10;;;;;;;2.10;2.00;;;15.90;56.00;;;;;;5052464;28;20273;-60
2021/12/11 03:34:36;;;;;;;2.55;2.35;;;15.90;55.90;;;;;;5051267;28;20261;-60
2021/12/11 03:37:03;;;;;;;2.50;2.30;;;15.90;56.00;;;;;;5052466;28;20629;-60
2021/12/11 03:39:36;;;;;;;3.40;2.40;;;15.90;55.90;;;;;;5051740;28;20509;-61
2021/12/11 03:42:06;;;;;;;2.55;2.30;;;15.90;55.90;;;;;;5051459;28;20365;-60
2021/12/11 03:44:33;;;;;;;2.95;2.65;;;15.90;55.90;;;;;;5051955;28;20185;-59
2021/12/11 03:47:00;;;;;;;2.50;2.30;;;15.90;56.00;;;;;;5052059;28;20175;-60
2021/12/11 03:49:26;;;;;;;2.72;2.38;;;15.80;55.90;;;;;;5050993;28;20221;-60
2021/12/11 03:51:52;;;;;;;3.17;2.80;;;15.90;55.90;;;;;;5051946;28;20170;-60
2021/12/11 03:54:21;;;;;;;2.78;2.58;;;15.80;55.90;;;;;;5051744;28;20258;-61
2021/12/11 03:56:46;;;;;;;2.33;2.13;;;15.80;55.90;;;;;;5051187;28;20206;-61
2021/12/11 03:59:12;;;;;;;2.40;2.20;;;15.80;55.90;;;;;;5052162;28;20214;-62
2021/12/11 04:01:42;;;;;;;2.60;2.40;;;15.80;55.90;;;;;;5051608;28;20178;-61
2021/12/11 04:04:17;;;;;;;1.92;1.83;;;15.80;55.90;;;;;;5051401;28;20258;-61
2021/12/11 04:06:42;;;;;;;2.70;2.47;;;15.80;55.90;;;;;;5051255;28;20664;-60
2021/12/11 04:09:09;;;;;;;2.40;2.20;;;15.80;56.00;;;;;;5050906;28;20230;-60
2021/12/11 04:11:34;;;;;;;2.70;2.25;;;15.80;55.90;;;;;;5051552;28;20175;-59
2021/12/11 04:14:03;;;;;;;2.47;2.28;;;15.70;55.90;;;;;;5051757;28;20638;-60
2021/12/11 04:16:29;;;;;;;2.50;2.30;;;15.70;55.90;;;;;;5050678;28;20192;-60
2021/12/11 04:18:55;;;;;;;2.83;2.63;;;15.80;55.90;;;;;;5050343;28;20167;-60
2021/12/11 04:21:20;;;;;;;2.85;2.53;;;15.70;55.90;;;;;;5051332;28;20183;-60
2021/12/11 04:23:46;;;;;;;2.38;2.28;;;15.70;55.90;;;;;;5050694;28;20650;-60
2021/12/11 04:26:11;;;;;;;2.60;2.38;;;15.70;55.90;;;;;;5051500;28;20172;-60
2021/12/11 04:28:40;;;;;;;2.40;2.20;;;15.70;55.90;;;;;;5051313;28;20175;-60
2021/12/11 04:31:12;;;;;;;3.03;2.40;;;15.70;55.90;;;;;;5050803;28;20183;-60
2021/12/11 04:33:42;;;;;;;2.50;2.30;;;15.70;55.90;;;;;;5052537;28;20175;-60
2021/12/11 04:36:11;;;;;;;2.45;2.25;;;15.70;55.90;;;;;;5055672;28;20183;-60
2021/12/11 04:38:37;;;;;;;3.42;2.60;;;15.70;55.90;;;;;;5054514;28;20522;-60
2021/12/11 04:41:04;;;;;;;2.92;2.72;;;15.70;55.90;;;;;;5055477;28;20190;-60
2021/12/11 04:43:29;;;;;;;2.50;2.30;;;15.60;55.80;;;;;;5055156;28;20270;-60
2021/12/11 04:46:05;;;;;;;2.90;2.70;;;15.60;55.90;;;;;;5054748;28;20273;-60
2021/12/11 04:48:56;;;;;;;3.85;2.72;;;15.70;55.90;;;;;;5055141;28;20175;-61
2021/12/11 04:51:28;;;;;;;2.60;2.40;;;15.70;55.90;;;;;;5054389;28;20191;-60
2021/12/11 05:04:51;;;;;;;2.20;2.00;;;15.60;55.80;;;;;;5053428;28;20183;-60
2021/12/11 05:09:53;;;;;;;2.70;2.47;;;15.50;55.90;;;;;;5054906;28;20272;-60
2021/12/11 05:12:31;;;;;;;3.15;2.58;;;15.50;55.90;;;;;;5054367;28;20205;-59
2021/12/11 05:14:56;;;;;;;2.28;2.08;;;15.50;55.80;;;;;;5055115;28;20175;-61
2021/12/11 05:17:22;;;;;;;2.30;2.10;;;15.50;55.80;;;;;;5054298;28;20174;-60
2021/12/11 05:19:48;;;;;;;2.35;2.10;;;15.50;55.90;;;;;;5054256;28;20221;-61
2021/12/11 05:22:13;;;;;;;2.70;2.50;;;15.50;55.90;;;;;;5054594;28;20170;-60
2021/12/11 05:24:42;;;;;;;2.53;2.33;;;15.50;55.80;;;;;;5054456;28;20548;-60
2021/12/11 05:27:08;;;;;;;2.25;2.10;;;15.50;55.90;;;;;;5054057;28;20171;-60
2021/12/11 05:29:34;;;;;;;2.30;2.13;;;15.50;55.90;;;;;;5054174;28;20250;-60
2021/12/11 05:31:59;;;;;;;3.08;2.33;;;15.50;55.90;;;;;;5054595;28;20212;-60
2021/12/11 05:34:25;;;;;;;2.47;2.28;;;15.50;55.80;;;;;;5053654;28;20186;-60
2021/12/11 05:36:50;;;;;;;2.47;2.28;;;15.50;55.80;;;;;;5054546;28;20171;-60
2021/12/11 05:39:17;;;;;;;2.65;2.45;;;15.40;55.80;;;;;;5054529;28;20167;-61
2021/12/11 05:41:43;;;;;;;2.80;2.60;;;15.40;55.80;;;;;;5053922;28;20178;-59
2021/12/11 05:44:09;;;;;;;2.80;2.60;;;15.40;55.80;;;;;;5054399;28;20179;-61
2021/12/11 05:46:34;;;;;;;3.08;2.28;;;15.40;55.80;;;;;;5054031;28;20171;-61
2021/12/11 05:49:00;;;;;;;2.70;2.50;;;15.40;55.90;;;;;;5053536;28;20293;-61
2021/12/11 05:51:26;;;;;;;3.75;2.70;;;15.40;55.90;;;;;;5053793;28;20187;-60
2021/12/11 05:53:56;;;;;;;3.00;2.80;;;15.40;55.90;;;;;;5054113;28;20234;-59
2021/12/11 05:56:23;;;;;;;2.95;2.60;;;15.40;55.90;;;;;;5053338;28;20186;-60
2021/12/11 06:01:19;;;;;;;2.42;2.22;;;15.40;56.00;;;;;;5054207;28;20167;-60
2021/12/11 06:03:45;;;;;;;2.42;2.22;;;15.40;55.90;;;;;;5053867;28;20186;-60
2021/12/11 06:06:13;;;;;;;2.45;2.25;;;15.40;55.80;;;;;;5054256;28;20171;-60
2021/12/11 06:08:39;;;;;;;2.35;2.17;;;15.40;55.80;;;;;;5053048;28;20221;-60
2021/12/11 06:11:04;;;;;;;2.40;2.20;;;15.40;55.80;;;;;;5054024;28;20183;-60
2021/12/11 06:13:30;;;;;;;2.20;2.08;;;15.50;55.90;;;;;;5053566;28;20252;-60
2021/12/11 06:15:56;;;;;;;2.95;2.28;;;15.60;55.80;;;;;;5053195;28;20209;-60
2021/12/11 06:18:22;;;;;;;2.40;2.20;;;15.70;55.90;;;;;;5053378;28;20178;-59
2021/12/11 06:20:48;;;;;;;2.60;2.40;;;15.80;56.40;;;;;;5053832;28;20183;-60
2021/12/11 06:23:14;;;;;;;2.50;2.30;;;15.90;55.60;;;;;;5053049;28;20171;-60
2021/12/11 06:25:40;;;;;;;2.45;2.25;;;16.00;55.40;;;;;;5053548;28;20191;-60
2021/12/11 06:28:07;;;;;;;2.33;2.13;;;16.10;55.30;;;;;;5053776;28;20692;-60
2021/12/11 06:30:32;;;;;;;2.53;2.33;;;16.30;55.00;;;;;;5052594;28;20215;-60
2021/12/11 06:32:58;;;;;;;2.38;2.25;;;16.40;54.90;;;;;;5053474;28;20175;-61
2021/12/11 06:35:30;;;;;;;2.20;2.00;;;16.40;54.70;;;;;;5053068;28;20626;-60
2021/12/11 06:37:56;;;;;;;1.80;1.70;;;16.50;54.60;;;;;;5053007;28;20600;-60
2021/12/11 06:40:22;;;;;;;2.30;2.10;;;16.60;54.40;;;;;;5053004;28;20214;-60
2021/12/11 06:42:47;;;;;;;2.08;1.88;;;16.70;54.40;;;;;;5053410;28;20587;-59
2021/12/11 06:45:16;;;;;;;2.10;1.90;;;16.70;54.30;;;;;;5052670;28;20193;-59
2021/12/11 06:47:41;;;;;;;2.05;1.92;;;16.80;54.30;;;;;;5052791;28;20191;-59
2021/12/11 06:50:07;;;;;;;2.30;2.10;;;16.80;54.20;;;;;;5053366;28;20237;-59
2021/12/11 06:52:33;;;;;;;1.88;1.77;;;16.80;54.20;;;;;;5051981;28;20237;-59
2021/12/11 06:54:58;;;;;;;2.78;2.30;;;16.70;54.30;;;;;;5053104;28;20186;-59
2021/12/11 06:57:24;;;;;;;2.40;2.20;;;16.70;54.40;;;;;;5052213;28;20175;-60
2021/12/11 06:59:49;;;;;;;2.13;1.90;;;16.60;54.50;;;;;;5052320;28;20178;-60
2021/12/11 07:02:16;;;;;;;2.10;2.00;;;16.50;55.20;;;;;;5052782;28;20650;-59
2021/12/11 07:04:42;;;;;;;2.58;2.38;;;16.60;54.60;;;;;;5052113;28;20518;-59
2021/12/11 07:07:08;;;;;;;2.92;2.30;;;16.60;54.60;;;;;;5053120;28;20654;-59
2021/12/11 07:09:34;;;;;;;2.05;1.95;;;16.60;54.60;;;;;;5052487;28;20207;-59
2021/12/11 07:11:59;;;;;;;2.13;1.98;;;16.70;54.60;;;;;;5052168;28;20182;-59
2021/12/11 07:14:28;;;;;;;2.60;2.40;;;16.80;54.40;;;;;;5052495;28;20171;-59
2021/12/11 07:16:54;;;;;;;2.50;2.30;;;16.90;54.30;;;;;;5053410;28;20622;-60
2021/12/11 07:19:19;;;;;;;2.35;1.90;;;17.00;54.30;;;;;;5051915;28;20194;-60
2021/12/11 07:21:50;;;;;;;3.13;2.13;;;17.00;54.10;;;;;;5052671;28;20175;-60
2021/12/11 07:24:16;;;;;;;2.25;2.05;;;17.00;54.10;;;;;;5052693;28;20190;-60
2021/12/11 07:26:41;;;;;;;2.00;1.90;;;17.10;54.10;;;;;;5051502;28;20171;-60
2021/12/11 07:29:13;;;;;;;1.85;1.75;;;17.20;54.10;;;;;;5052382;28;20199;-59
2021/12/11 07:31:39;;;;;;;2.17;2.00;;;17.30;53.80;;;;;;5052063;28;20649;-59
2021/12/11 07:34:05;;;;;;;2.58;2.38;;;17.50;53.60;;;;;;5051829;28;20183;-59
2021/12/11 07:36:30;;;;;;;2.42;2.22;;;17.70;53.30;;;;;;5052153;28;20247;-59
2021/12/11 07:38:56;;;;;;;1.90;1.80;;;18.00;52.70;;;;;;5052477;28;20244;-59
2021/12/11 07:41:21;;;;;;;2.20;2.00;;;18.20;52.30;;;;;;5051358;28;20221;-59
2021/12/11 07:43:47;;;;;;;2.42;2.22;;;18.40;52.10;;;;;;5052207;28;20533;-59
2021/12/11 07:46:15;;;;;;;2.42;2.22;;;18.50;51.80;;;;;;5052489;28;20171;-59
2021/12/11 07:48:49;;;;;;;2.25;2.05;;;18.60;51.60;;;;;;5051423;28;20312;-60
2021/12/11 07:51:15;;;;;;;2.50;2.30;;;18.60;51.60;;;;;;5052358;28;20197;-59
2021/12/11 07:53:41;;;;;;;2.33;2.00;;;18.60;51.70;;;;;;5051689;28;20226;-59
2021/12/11 07:56:06;;;;;;;1.75;1.65;;;18.60;51.80;;;;;;5051363;28;20171;-59
2021/12/11 07:58:32;;;;;;;2.60;2.40;;;18.60;51.90;;;;;;5051661;28;20181;-60
2021/12/11 08:00:58;;;;;;;2.35;2.15;;;18.50;51.90;;;;;;5051448;28;20221;-60
2021/12/11 08:03:23;;;;;;;2.60;1.85;;;18.50;52.10;;;;;;5051948;28;20226;-62
2021/12/11 08:05:50;;;;;;;2.40;2.20;;;18.40;52.20;;;;;;5051943;28;20179;-59
2021/12/11 08:08:16;;;;;;;2.47;2.13;;;18.40;52.30;;;;;;5050278;28;20179;-60
2021/12/11 08:10:43;;;;;;;4.10;2.58;;;18.40;52.30;;;;;;5051504;28;20210;-62
2021/12/11 08:13:08;;;;;;;2.65;2.30;;;18.30;52.50;;;;;;5051697;28;20175;-64
2021/12/11 08:15:34;;;;;;;2.13;1.90;;;18.30;52.60;;;;;;5050734;28;20175;-63
2021/12/11 08:18:00;;;;;;;2.55;2.35;;;18.30;52.50;;;;;;5050370;28;20630;-65
2021/12/11 08:20:28;;;;;;;4.05;2.42;;;18.30;52.50;;;;;;5051402;28;20266;-64
2021/12/11 08:22:54;;;;;;;3.70;2.33;;;18.40;52.40;;;;;;5051009;28;20198;-65
2021/12/11 08:25:20;;;;;;;2.78;2.10;;;18.40;52.50;;;;;;5051280;28;20171;-65
2021/12/11 08:27:45;;;;;;;4.78;2.88;;;18.50;52.30;;;;;;5051884;28;20262;-66
2021/12/11 08:30:11;;;;;;;4.03;3.03;;;18.50;52.10;;;;;;5051036;28;20305;-65
2021/12/11 08:32:37;;;;;;;5.22;3.10;;;18.50;51.90;;;;;;5051362;28;20556;-66
2021/12/11 08:35:04;;;;;;;3.83;3.20;;;18.50;51.70;;;;;;5051698;28;20175;-67
2021/12/11 08:37:29;;;;;;;5.13;3.15;;;18.60;51.50;;;;;;5050487;28;20175;-67
2021/12/11 08:39:55;;;;;;;4.07;3.70;;;18.60;51.50;;;;;;5051411;28;20672;-67
2021/12/11 08:42:23;;;;;;;3.83;3.08;;;18.60;51.40;;;;;;5059249;28;20186;-66
2021/12/11 08:44:52;;;;;;;3.60;3.30;;;18.70;51.30;;;;;;5054648;28;20167;-66
2021/12/11 08:47:18;;;;;;;3.85;3.22;;;18.70;51.30;;;;;;5071376;28;20614;-65
2021/12/11 08:49:43;;;;;;;3.70;2.92;;;18.70;51.30;;;;;;5060105;28;20210;-66
2021/12/11 08:52:10;;;;;;;4.43;2.92;;;18.70;51.20;;;;;;5050050;28;20187;-65
2021/12/11 08:54:36;;;;;;;4.35;2.90;;;18.80;51.20;;;;;;5050816;28;20198;-66
2021/12/11 08:57:06;;;;;;;3.35;2.97;;;18.80;51.30;;;;;;5051439;28;20167;-66
2021/12/11 08:59:32;;;;;;;4.43;3.25;;;18.80;51.30;;;;;;5069649;28;20641;-66
2021/12/11 09:02:22;;;;;;;4.55;3.08;;;18.80;51.20;;;;;;5071449;28;20181;-65
2021/12/11 09:04:58;;;;;;;3.50;3.20;;;18.80;51.30;;;;;;5070625;28;20189;-66
2021/12/11 09:07:39;;;;;;;2.80;2.60;;;18.80;51.30;;;;;;5070701;28;20194;-66
2021/12/11 09:10:22;;;;;;;3.22;2.92;;;18.80;51.30;;;;;;5071155;28;20680;-65
2021/12/11 09:12:52;;;;;;;4.35;2.85;;;18.70;51.50;;;;;;5070528;28;20220;-65
2021/12/11 09:15:43;;;;;;;3.65;3.33;;;18.80;51.50;;;;;;5062138;28;20231;-65
2021/12/11 09:18:17;;;;;;;3.42;3.13;;;18.80;51.50;;;;;;5048155;28;20238;-65
2021/12/11 09:20:54;;;;;;;3.55;2.97;;;18.80;51.50;;;;;;5054052;28;20183;-65
2021/12/11 09:23:25;;;;;;;3.17;2.92;;;18.80;51.50;;;;;;5054658;28;20186;-65
2021/12/11 09:26:24;;;;;;;3.08;2.78;;;18.80;51.50;;;;;;5054119;28;20194;-65
2021/12/11 09:28:51;;;;;;;3.42;3.13;;;18.80;51.70;;;;;;5054615;28;20183;-68
2021/12/11 09:31:21;;;;;;;3.22;2.88;;;18.80;51.80;;;;;;5054206;28;20305;-65
2021/12/11 09:33:59;;;;;;;5.10;3.22;;;18.80;51.90;;;;;;5054035;28;20167;-65
2021/12/11 09:36:30;;;;;;;4.03;3.40;;;18.70;51.90;;;;;;5054115;28;20178;-69
2021/12/11 09:39:04;;;;;;;4.25;3.00;;;18.60;52.10;;;;;;5054818;28;20174;-69
2021/12/11 09:41:30;;;;;;;4.57;3.08;;;18.40;52.30;;;;;;5053730;28;20174;-68
2021/12/11 09:43:58;;;;;;;3.63;3.20;;;18.30;52.50;;;;;;5054643;28;20526;-69
2021/12/11 09:46:28;;;;;;;3.72;3.13;;;18.20;52.70;;;;;;5053624;28;20266;-69
2021/12/11 09:48:56;;;;;;;4.65;3.75;;;18.10;52.80;;;;;;5058705;28;20170;-69
2021/12/11 09:51:26;;;;;;;4.55;3.30;;;18.10;52.90;;;;;;5074164;28;20542;-68
2021/12/11 09:53:54;;;;;;;4.68;3.53;;;18.10;52.80;;;;;;5073480;28;20250;-69
2021/12/11 09:56:29;;;;;;;8.30;3.42;;;18.10;52.90;;;;;;5073954;28;20182;-68
2021/12/11 09:58:56;;;;;;;4.05;3.10;;;18.10;52.80;;;;;;5074333;28;20174;-69
2021/12/11 10:01:25;;;;;;;4.13;3.50;;;18.20;52.80;;;;;;5073153;28;20250;-68
2021/12/11 10:04:06;;;;;;;4.13;3.70;;;18.20;52.70;;;;;;5074387;28;20179;-69
2021/12/11 10:06:44;;;;;;;4.05;3.65;;;18.20;52.70;;;;;;5073963;28;20163;-68
2021/12/11 10:09:19;;;;;;;3.80;3.40;;;18.20;52.70;;;;;;5073395;28;20202;-68
2021/12/11 10:11:52;;;;;;;5.07;3.47;;;18.20;52.60;;;;;;5073775;28;20219;-67
2021/12/11 10:14:19;;;;;;;4.65;3.28;;;18.20;52.60;;;;;;5074251;28;20276;-66
2021/12/11 10:16:49;;;;;;;6.93;4.18;;;18.20;52.60;;;;;;5073174;28;20185;-68
2021/12/11 10:19:16;;;;;;;5.50;3.53;;;18.20;52.60;;;;;;5073777;28;20348;-62
2021/12/11 10:21:45;;;;;;;3.85;3.40;;;18.30;52.60;;;;;;5072728;28;20514;-62
2021/12/11 10:24:13;;;;;;;5.53;3.50;;;18.40;52.40;;;;;;5073569;28;20587;-65
2021/12/11 10:26:39;;;;;;;5.57;3.67;;;18.30;52.50;;;;;;5073130;28;20629;-62
2021/12/11 10:29:07;;;;;;;3.83;3.42;;;18.40;52.50;;;;;;5072991;28;20190;-64
2021/12/11 10:31:42;;;;;;;6.20;3.28;;;18.40;52.60;;;;;;5072477;28;20307;-65
2021/12/11 10:34:10;;;;;;;4.95;3.38;;;18.50;52.60;;;;;;5073824;28;20161;-65
2021/12/11 10:36:38;;;;;;;6.40;3.83;;;18.50;52.50;;;;;;5072292;28;20266;-64
2021/12/11 10:39:06;;;;;;;3.88;3.42;;;18.50;52.60;;;;;;5073511;28;20179;-66
2021/12/11 10:41:31;;;;;;;6.15;3.90;;;18.60;52.60;;;;;;5073007;28;20183;-64
2021/12/11 10:44:01;;;;;;;4.38;3.80;;;18.50;52.80;;;;;;5072541;28;20175;-64
2021/12/11 10:46:33;;;;;;;6.82;3.70;;;18.60;52.80;;;;;;5072903;28;20595;-63
2021/12/11 10:48:58;;;;;;;4.05;3.25;;;18.60;52.70;;;;;;5062474;28;20237;-64
2021/12/11 10:51:33;;;;;;;4.65;3.88;;;18.60;52.70;;;;;;5051992;28;20183;-63
2021/12/11 10:53:59;;;;;;;5.40;3.40;;;18.60;52.90;;;;;;5052750;28;20611;-64
2021/12/11 10:56:24;;;;;;;5.65;3.55;;;18.60;52.90;;;;;;5052844;28;20197;-63
2021/12/11 10:59:02;;;;;;;3.83;3.50;;;18.60;53.00;;;;;;5052329;28;20712;-64
2021/12/11 11:01:34;;;;;;;4.07;3.38;;;18.50;53.20;;;;;;5053185;28;20179;-64
2021/12/11 11:04:07;;;;;;;4.22;3.75;;;18.40;53.30;;;;;;5052488;28;20183;-64
2021/12/11 11:06:33;;;;;;;5.10;3.58;;;18.30;53.60;;;;;;5053013;28;20585;-64
2021/12/11 11:08:58;;;;;;;3.85;3.47;;;18.20;53.80;;;;;;5052955;28;20677;-61
2021/12/11 11:11:26;;;;;;;5.10;3.60;;;18.20;53.90;;;;;;5051892;28;20175;-64
2021/12/11 11:13:51;;;;;;;8.77;3.55;;;18.20;54.10;;;;;;5052735;28;20207;-63
2021/12/11 11:16:18;;;;;;;4.35;3.72;;;18.10;54.20;;;;;;5052637;28;20325;-64
2021/12/11 11:18:44;;;;;;;4.90;3.58;;;18.00;54.30;;;;;;5052736;28;20171;-63
2021/12/11 11:21:10;;;;;;;5.10;3.42;;;18.00;54.60;;;;;;5053026;28;20181;-64
2021/12/11 11:23:36;;;;;;;4.18;3.67;;;17.90;54.50;;;;;;5052207;28;20190;-63
2021/12/11 11:26:05;;;;;;;4.88;3.55;;;17.90;54.60;;;;;;5051792;28;20175;-62
2021/12/11 11:28:33;;;;;;;4.60;4.20;;;17.90;54.70;;;;;;5052076;28;20176;-62
2021/12/11 11:31:00;;;;;;;4.82;3.88;;;17.90;54.70;;;;;;5052756;28;20215;-66
2021/12/11 11:33:27;;;;;;;5.07;3.40;;;17.90;54.70;;;;;;5051478;28;20225;-66
2021/12/11 11:35:52;;;;;;;4.78;3.70;;;18.00;54.70;;;;;;5052301;28;20175;-66
2021/12/11 11:38:22;;;;;;;5.95;3.58;;;18.00;54.70;;;;;;5052175;28;20243;-64
2021/12/11 11:40:49;;;;;;;4.18;3.72;;;18.00;54.70;;;;;;5051306;28;20175;-66
2021/12/11 11:43:14;;;;;;;6.82;3.65;;;18.00;54.60;;;;;;5051760;28;20179;-64
2021/12/11 11:45:40;;;;;;;7.43;4.35;;;18.00;54.60;;;;;;5052048;28;20182;-66
2021/12/11 11:48:06;;;;;;;5.13;3.55;;;18.00;54.70;;;;;;5051633;28;20167;-66
2021/12/11 11:50:36;;;;;;;4.65;3.42;;;18.00;54.70;;;;;;5069749;28;20286;-65
2021/12/11 11:53:03;;;;;;;3.70;3.38;;;17.90;55.00;;;;;;5071164;28;20727;-65
2021/12/11 11:55:31;;;;;;;4.50;3.72;;;17.90;54.90;;;;;;5071611;28;20189;-67
2021/12/11 11:57:58;;;;;;;5.68;3.53;;;17.80;55.00;;;;;;5071780;28;20181;-66
2021/12/11 12:00:28;;;;;;;3.95;3.58;;;17.80;55.00;;;;;;5070881;28;20174;-67
2021/12/11 12:02:56;;;;;;;4.78;4.07;;;17.90;55.00;;;;;;5071758;28;20540;-68
2021/12/11 12:05:22;;;;;;;5.25;3.75;;;17.90;54.80;;;;;;5071443;28;20182;-72
2021/12/11 12:07:48;;;;;;;4.47;3.67;;;17.90;54.80;;;;;;5071138;28;20251;-65
2021/12/11 12:10:19;;;;;;;6.55;4.20;;;17.90;54.70;;;;;;5071509;28;20222;-64
2021/12/11 12:12:45;;;;;;;5.07;3.95;;;17.90;54.70;;;;;;5071674;28;20586;-63
2021/12/11 12:15:14;;;;;;;5.32;3.88;;;17.90;54.70;;;;;;5070960;28;20174;-63
2021/12/11 12:17:42;;;;;;;7.97;4.00;;;17.90;54.70;;;;;;5071130;28;20193;-63
2021/12/11 12:20:09;;;;;;;4.53;3.80;;;17.80;54.80;;;;;;5071404;28;20206;-64
2021/12/11 12:22:35;;;;;;;7.53;3.60;;;17.80;54.80;;;;;;5070398;28;20540;-63
2021/12/11 12:25:02;;;;;;;6.70;3.60;;;17.80;55.00;;;;;;5071327;28;20272;-64
2021/12/11 12:27:29;;;;;;;4.70;3.35;;;17.80;55.10;;;;;;5071255;28;20625;-63
2021/12/11 12:29:55;;;;;;;6.68;3.42;;;17.80;55.10;;;;;;5070846;28;20277;-65
2021/12/11 12:32:29;;;;;;;6.05;3.85;;;17.80;55.00;;;;;;5071299;28;20606;-68
2021/12/11 12:34:56;;;;;;;7.80;4.18;;;17.80;55.00;;;;;;5071511;28;20189;-63
2021/12/11 12:37:21;;;;;;;7.18;3.83;;;17.90;55.20;;;;;;5070461;28;20252;-61
2021/12/11 12:39:48;;;;;;;5.72;3.80;;;17.80;55.00;;;;;;5071988;28;20536;-71
2021/12/11 12:42:27;;;;;;;8.10;4.38;;;17.80;55.60;;;;;;5071067;28;20209;-70
2021/12/11 12:44:59;;;;;;;5.78;3.60;;;17.70;55.00;;;;;;5071406;28;20174;-71
2021/12/11 12:47:29;;;;;;;5.80;4.32;;;17.60;55.00;;;;;;5071021;28;20190;-69
2021/12/11 12:49:56;;;;;;;5.95;4.00;;;17.60;55.00;;;;;;5057396;28;20209;-70
2021/12/11 12:52:28;;;;;;;4.65;4.15;;;17.50;55.00;;;;;;5050916;28;20250;-69
2021/12/11 12:54:54;;;;;;;5.07;3.72;;;17.50;55.10;;;;;;5052805;28;20557;-62
2021/12/11 12:57:29;;;;;;;4.70;3.80;;;17.50;55.20;;;;;;5054265;28;20171;-61
2021/12/11 13:00:05;;;;;;;5.20;3.92;;;17.60;55.10;;;;;;5055106;28;20174;-66
2021/12/11 13:02:31;;;;;;;6.60;3.70;;;17.60;55.00;;;;;;5054815;28;20577;-65
2021/12/11 13:05:00;;;;;;;5.75;3.80;;;17.70;54.90;;;;;;5054412;28;20179;-65
2021/12/11 13:07:26;;;;;;;6.90;4.35;;;17.70;55.00;;;;;;5054828;28;20622;-64
2021/12/11 13:09:54;;;;;;;16.58;4.25;;;17.70;54.80;;;;;;5054963;28;20223;-63
2021/12/11 13:12:31;;;;;;;8.02;3.80;;;17.70;54.80;;;;;;5053784;28;20521;-66
2021/12/11 13:15:03;;;;;;;5.78;3.67;;;17.70;55.00;;;;;;5054700;28;20229;-65